sensor_id;sensor_type;location;lat;lon;timestamp;P1;durP1;ratioP1;P2;durP2;ratioP2
66139;SDS011;52945;51.908;8.364;2023-10-13T00:02:15;12.93;;;7.05;;
66139;SDS011;52945;51.908;8.364;2023-10-13T00:05:19;14.52;;;7.15;;
66139;SDS011;52945;51.908;8.364;2023-10-13T00:08:19;16.63;;;7.05;;
66139;SDS011;52945;51.908;8.364;2023-10-13T00:11:20;18.02;;;7.07;;
66139;SDS011;52945;51.908;8.364;2023-10-13T00:17:32;15.82;;;6.80;;
66139;SDS011;52945;51.908;8.364;2023-10-13T00:20:33;14.75;;;7.20;;
66139;SDS011;52945;51.908;8.364;2023-10-13T00:23:38;14.00;;;6.93;;
66139;SDS011;52945;51.908;8.364;2023-10-13T00:26:54;13.20;;;6.70;;
66139;SDS011;52945;51.908;8.364;2023-10-13T00:30:02;14.52;;;6.82;;
66139;SDS011;52945;51.908;8.364;2023-10-13T00:33:17;16.27;;;7.10;;
66139;SDS011;52945;51.908;8.364;2023-10-13T00:36:22;15.15;;;6.53;;
66139;SDS011;52945;51.908;8.364;2023-10-13T00:42:23;14.48;;;6.63;;
66139;SDS011;52945;51.908;8.364;2023-10-13T00:45:34;15.68;;;6.97;;
66139;SDS011;52945;51.908;8.364;2023-10-13T00:51:45;14.75;;;6.97;;
66139;SDS011;52945;51.908;8.364;2023-10-13T00:54:48;16.45;;;8.10;;
66139;SDS011;52945;51.908;8.364;2023-10-13T00:57:51;17.13;;;7.20;;
66139;SDS011;52945;51.908;8.364;2023-10-13T01:00:57;11.98;;;6.65;;
66139;SDS011;52945;51.908;8.364;2023-10-13T01:04:17;13.00;;;6.63;;
66139;SDS011;52945;51.908;8.364;2023-10-13T01:07:19;15.82;;;7.25;;
66139;SDS011;52945;51.908;8.364;2023-10-13T01:10:22;15.85;;;7.28;;
66139;SDS011;52945;51.908;8.364;2023-10-13T01:13:27;15.25;;;7.93;;
66139;SDS011;52945;51.908;8.364;2023-10-13T01:16:30;17.02;;;7.28;;
66139;SDS011;52945;51.908;8.364;2023-10-13T01:19:35;15.25;;;7.78;;
66139;SDS011;52945;51.908;8.364;2023-10-13T01:22:42;19.25;;;8.13;;
66139;SDS011;52945;51.908;8.364;2023-10-13T01:28:43;13.70;;;7.35;;
66139;SDS011;52945;51.908;8.364;2023-10-13T01:31:46;14.60;;;7.13;;
66139;SDS011;52945;51.908;8.364;2023-10-13T01:37:49;18.08;;;7.20;;
66139;SDS011;52945;51.908;8.364;2023-10-13T01:43:51;17.15;;;7.22;;
66139;SDS011;52945;51.908;8.364;2023-10-13T01:49:52;19.52;;;7.30;;
66139;SDS011;52945;51.908;8.364;2023-10-13T01:59:12;12.80;;;6.57;;
66139;SDS011;52945;51.908;8.364;2023-10-13T02:05:14;13.57;;;6.75;;
66139;SDS011;52945;51.908;8.364;2023-10-13T02:08:17;17.00;;;7.65;;
66139;SDS011;52945;51.908;8.364;2023-10-13T02:11:24;15.20;;;7.60;;
66139;SDS011;52945;51.908;8.364;2023-10-13T02:17:25;16.00;;;8.07;;
66139;SDS011;52945;51.908;8.364;2023-10-13T02:20:28;19.60;;;7.55;;
66139;SDS011;52945;51.908;8.364;2023-10-13T02:23:30;15.02;;;7.10;;
66139;SDS011;52945;51.908;8.364;2023-10-13T02:29:32;15.70;;;7.18;;
66139;SDS011;52945;51.908;8.364;2023-10-13T02:35:43;12.30;;;6.82;;
66139;SDS011;52945;51.908;8.364;2023-10-13T02:38:53;15.02;;;7.55;;
66139;SDS011;52945;51.908;8.364;2023-10-13T02:41:57;16.27;;;7.93;;
66139;SDS011;52945;51.908;8.364;2023-10-13T02:47:59;15.68;;;7.53;;
66139;SDS011;52945;51.908;8.364;2023-10-13T02:51:13;17.50;;;8.38;;
66139;SDS011;52945;51.908;8.364;2023-10-13T02:54:17;14.15;;;7.65;;
66139;SDS011;52945;51.908;8.364;2023-10-13T03:00:19;17.15;;;8.00;;
66139;SDS011;52945;51.908;8.364;2023-10-13T03:03:23;15.30;;;8.35;;
66139;SDS011;52945;51.908;8.364;2023-10-13T03:09:32;15.55;;;7.82;;
66139;SDS011;52945;51.908;8.364;2023-10-13T03:12:38;17.73;;;8.70;;
66139;SDS011;52945;51.908;8.364;2023-10-13T03:15:39;15.52;;;7.90;;
66139;SDS011;52945;51.908;8.364;2023-10-13T03:21:51;15.18;;;7.90;;
66139;SDS011;52945;51.908;8.364;2023-10-13T03:25:07;16.40;;;7.88;;
66139;SDS011;52945;51.908;8.364;2023-10-13T03:28:13;16.80;;;7.85;;
66139;SDS011;52945;51.908;8.364;2023-10-13T03:31:16;13.65;;;7.13;;
66139;SDS011;52945;51.908;8.364;2023-10-13T03:34:18;17.80;;;8.00;;
66139;SDS011;52945;51.908;8.364;2023-10-13T03:40:39;14.80;;;7.93;;
66139;SDS011;52945;51.908;8.364;2023-10-13T03:46:51;14.55;;;7.22;;
66139;SDS011;52945;51.908;8.364;2023-10-13T03:49:54;14.82;;;7.18;;
66139;SDS011;52945;51.908;8.364;2023-10-13T03:53:14;15.18;;;7.38;;
66139;SDS011;52945;51.908;8.364;2023-10-13T03:59:15;15.10;;;7.38;;
66139;SDS011;52945;51.908;8.364;2023-10-13T04:05:18;15.18;;;6.70;;
66139;SDS011;52945;51.908;8.364;2023-10-13T04:08:37;18.52;;;7.85;;
66139;SDS011;52945;51.908;8.364;2023-10-13T04:12:07;13.95;;;7.07;;
66139;SDS011;52945;51.908;8.364;2023-10-13T04:15:11;15.20;;;7.20;;
66139;SDS011;52945;51.908;8.364;2023-10-13T04:18:17;15.88;;;7.68;;
66139;SDS011;52945;51.908;8.364;2023-10-13T04:21:34;16.08;;;7.60;;
66139;SDS011;52945;51.908;8.364;2023-10-13T04:24:56;13.60;;;7.45;;
66139;SDS011;52945;51.908;8.364;2023-10-13T04:28:01;15.27;;;7.68;;
66139;SDS011;52945;51.908;8.364;2023-10-13T04:31:15;13.50;;;6.63;;
66139;SDS011;52945;51.908;8.364;2023-10-13T04:34:25;15.25;;;7.00;;
66139;SDS011;52945;51.908;8.364;2023-10-13T04:37:28;15.40;;;7.65;;
66139;SDS011;52945;51.908;8.364;2023-10-13T04:40:29;19.60;;;7.95;;
66139;SDS011;52945;51.908;8.364;2023-10-13T04:43:35;13.30;;;6.72;;
66139;SDS011;52945;51.908;8.364;2023-10-13T04:46:57;13.25;;;7.05;;
66139;SDS011;52945;51.908;8.364;2023-10-13T04:49:59;17.15;;;6.97;;
66139;SDS011;52945;51.908;8.364;2023-10-13T04:53:01;14.25;;;6.95;;
66139;SDS011;52945;51.908;8.364;2023-10-13T04:56:02;14.82;;;7.13;;
66139;SDS011;52945;51.908;8.364;2023-10-13T04:59:02;13.93;;;6.30;;
66139;SDS011;52945;51.908;8.364;2023-10-13T05:02:17;12.85;;;6.20;;
66139;SDS011;52945;51.908;8.364;2023-10-13T05:05:45;11.98;;;5.82;;
66139;SDS011;52945;51.908;8.364;2023-10-13T05:08:53;12.23;;;5.78;;
66139;SDS011;52945;51.908;8.364;2023-10-13T05:12:15;11.30;;;5.50;;
66139;SDS011;52945;51.908;8.364;2023-10-13T05:15:42;10.65;;;5.32;;
66139;SDS011;52945;51.908;8.364;2023-10-13T05:19:01;9.93;;;5.65;;
66139;SDS011;52945;51.908;8.364;2023-10-13T05:22:21;9.77;;;5.35;;
66139;SDS011;52945;51.908;8.364;2023-10-13T05:25:40;10.32;;;5.28;;
66139;SDS011;52945;51.908;8.364;2023-10-13T05:28:59;11.90;;;5.05;;
66139;SDS011;52945;51.908;8.364;2023-10-13T05:32:18;10.48;;;4.72;;
66139;SDS011;52945;51.908;8.364;2023-10-13T05:35:38;11.45;;;4.97;;
66139;SDS011;52945;51.908;8.364;2023-10-13T05:39:07;10.23;;;4.90;;
66139;SDS011;52945;51.908;8.364;2023-10-13T05:42:27;9.73;;;4.55;;
66139;SDS011;52945;51.908;8.364;2023-10-13T05:45:46;9.23;;;4.18;;
66139;SDS011;52945;51.908;8.364;2023-10-13T05:49:19;8.50;;;4.70;;
66139;SDS011;52945;51.908;8.364;2023-10-13T05:52:40;11.40;;;4.55;;
66139;SDS011;52945;51.908;8.364;2023-10-13T05:55:59;12.02;;;4.68;;
66139;SDS011;52945;51.908;8.364;2023-10-13T05:59:19;8.95;;;4.25;;
66139;SDS011;52945;51.908;8.364;2023-10-13T06:02:38;8.88;;;4.63;;
66139;SDS011;52945;51.908;8.364;2023-10-13T06:05:57;9.38;;;4.20;;
66139;SDS011;52945;51.908;8.364;2023-10-13T06:09:16;8.77;;;4.57;;
66139;SDS011;52945;51.908;8.364;2023-10-13T06:12:35;9.38;;;3.88;;
66139;SDS011;52945;51.908;8.364;2023-10-13T06:15:55;8.20;;;4.00;;
66139;SDS011;52945;51.908;8.364;2023-10-13T06:19:15;8.38;;;4.45;;
66139;SDS011;52945;51.908;8.364;2023-10-13T06:22:34;7.93;;;4.43;;
66139;SDS011;52945;51.908;8.364;2023-10-13T06:25:53;10.65;;;4.63;;
66139;SDS011;52945;51.908;8.364;2023-10-13T06:29:14;9.68;;;4.53;;
66139;SDS011;52945;51.908;8.364;2023-10-13T06:32:20;10.07;;;4.38;;
66139;SDS011;52945;51.908;8.364;2023-10-13T06:35:25;7.80;;;4.50;;
66139;SDS011;52945;51.908;8.364;2023-10-13T06:38:26;8.93;;;4.20;;
66139;SDS011;52945;51.908;8.364;2023-10-13T06:41:31;10.57;;;4.65;;
66139;SDS011;52945;51.908;8.364;2023-10-13T06:47:32;8.40;;;4.45;;
66139;SDS011;52945;51.908;8.364;2023-10-13T06:53:39;9.52;;;4.20;;
66139;SDS011;52945;51.908;8.364;2023-10-13T06:56:46;10.90;;;4.63;;
66139;SDS011;52945;51.908;8.364;2023-10-13T06:59:51;8.63;;;4.43;;
66139;SDS011;52945;51.908;8.364;2023-10-13T07:02:53;9.68;;;4.82;;
66139;SDS011;52945;51.908;8.364;2023-10-13T07:05:54;11.05;;;4.47;;
66139;SDS011;52945;51.908;8.364;2023-10-13T07:08:58;8.75;;;4.55;;
66139;SDS011;52945;51.908;8.364;2023-10-13T07:12:05;10.95;;;4.25;;
66139;SDS011;52945;51.908;8.364;2023-10-13T07:15:06;11.63;;;4.15;;
66139;SDS011;52945;51.908;8.364;2023-10-13T07:18:16;10.52;;;4.50;;
66139;SDS011;52945;51.908;8.364;2023-10-13T07:21:22;10.80;;;3.80;;
66139;SDS011;52945;51.908;8.364;2023-10-13T07:24:31;8.38;;;4.15;;
66139;SDS011;52945;51.908;8.364;2023-10-13T07:27:39;7.45;;;3.63;;
66139;SDS011;52945;51.908;8.364;2023-10-13T07:34:09;9.05;;;3.25;;
66139;SDS011;52945;51.908;8.364;2023-10-13T07:37:16;7.72;;;3.25;;
66139;SDS011;52945;51.908;8.364;2023-10-13T07:40:19;10.48;;;3.33;;
66139;SDS011;52945;51.908;8.364;2023-10-13T07:43:27;7.13;;;3.13;;
66139;SDS011;52945;51.908;8.364;2023-10-13T07:49:32;9.52;;;3.67;;
66139;SDS011;52945;51.908;8.364;2023-10-13T07:52:36;8.85;;;3.25;;
66139;SDS011;52945;51.908;8.364;2023-10-13T07:58:39;6.68;;;3.15;;
66139;SDS011;52945;51.908;8.364;2023-10-13T08:02:00;7.38;;;2.67;;
66139;SDS011;52945;51.908;8.364;2023-10-13T08:05:28;6.82;;;3.03;;
66139;SDS011;52945;51.908;8.364;2023-10-13T08:08:51;7.18;;;3.20;;
66139;SDS011;52945;51.908;8.364;2023-10-13T08:11:57;7.05;;;3.15;;
66139;SDS011;52945;51.908;8.364;2023-10-13T08:18:21;6.03;;;2.85;;
66139;SDS011;52945;51.908;8.364;2023-10-13T08:21:30;5.00;;;2.53;;
66139;SDS011;52945;51.908;8.364;2023-10-13T08:24:34;5.32;;;2.92;;
66139;SDS011;52945;51.908;8.364;2023-10-13T08:27:37;7.18;;;3.42;;
66139;SDS011;52945;51.908;8.364;2023-10-13T08:31:10;9.10;;;3.15;;
66139;SDS011;52945;51.908;8.364;2023-10-13T08:34:37;5.85;;;2.72;;
66139;SDS011;52945;51.908;8.364;2023-10-13T08:38:01;5.93;;;2.97;;
66139;SDS011;52945;51.908;8.364;2023-10-13T08:41:13;6.82;;;2.90;;
66139;SDS011;52945;51.908;8.364;2023-10-13T08:44:17;4.40;;;2.90;;
66139;SDS011;52945;51.908;8.364;2023-10-13T08:47:32;6.53;;;3.25;;
66139;SDS011;52945;51.908;8.364;2023-10-13T08:50:46;6.57;;;3.10;;
66139;SDS011;52945;51.908;8.364;2023-10-13T08:53:51;6.70;;;3.15;;
66139;SDS011;52945;51.908;8.364;2023-10-13T08:56:58;7.10;;;3.03;;
66139;SDS011;52945;51.908;8.364;2023-10-13T09:00:32;5.82;;;3.13;;
66139;SDS011;52945;51.908;8.364;2023-10-13T09:03:53;7.15;;;3.20;;
66139;SDS011;52945;51.908;8.364;2023-10-13T09:07:17;8.45;;;3.50;;
66139;SDS011;52945;51.908;8.364;2023-10-13T09:10:22;8.07;;;2.78;;
66139;SDS011;52945;51.908;8.364;2023-10-13T09:13:44;5.20;;;2.83;;
66139;SDS011;52945;51.908;8.364;2023-10-13T09:16:44;7.82;;;2.55;;
66139;SDS011;52945;51.908;8.364;2023-10-13T09:19:49;6.97;;;2.95;;
66139;SDS011;52945;51.908;8.364;2023-10-13T09:22:57;5.35;;;2.75;;
66139;SDS011;52945;51.908;8.364;2023-10-13T09:26:06;8.57;;;3.17;;
66139;SDS011;52945;51.908;8.364;2023-10-13T09:29:19;8.45;;;2.60;;
66139;SDS011;52945;51.908;8.364;2023-10-13T09:32:20;8.77;;;3.00;;
66139;SDS011;52945;51.908;8.364;2023-10-13T09:35:21;8.48;;;2.75;;
66139;SDS011;52945;51.908;8.364;2023-10-13T09:38:28;7.82;;;2.90;;
66139;SDS011;52945;51.908;8.364;2023-10-13T09:41:31;8.57;;;2.92;;
66139;SDS011;52945;51.908;8.364;2023-10-13T09:44:32;6.60;;;3.13;;
66139;SDS011;52945;51.908;8.364;2023-10-13T09:47:34;6.57;;;2.83;;
66139;SDS011;52945;51.908;8.364;2023-10-13T09:50:40;7.18;;;2.85;;
66139;SDS011;52945;51.908;8.364;2023-10-13T09:53:45;6.07;;;2.80;;
66139;SDS011;52945;51.908;8.364;2023-10-13T09:56:54;9.63;;;3.00;;
66139;SDS011;52945;51.908;8.364;2023-10-13T10:00:06;7.35;;;3.00;;
66139;SDS011;52945;51.908;8.364;2023-10-13T10:03:29;9.75;;;3.03;;
66139;SDS011;52945;51.908;8.364;2023-10-13T10:06:38;10.32;;;3.08;;
66139;SDS011;52945;51.908;8.364;2023-10-13T10:09:39;7.45;;;2.80;;
66139;SDS011;52945;51.908;8.364;2023-10-13T10:12:52;11.20;;;3.42;;
66139;SDS011;52945;51.908;8.364;2023-10-13T10:16:10;9.63;;;3.13;;
66139;SDS011;52945;51.908;8.364;2023-10-13T10:19:14;7.32;;;3.05;;
66139;SDS011;52945;51.908;8.364;2023-10-13T10:22:24;9.25;;;3.03;;
66139;SDS011;52945;51.908;8.364;2023-10-13T10:25:36;5.93;;;2.70;;
66139;SDS011;52945;51.908;8.364;2023-10-13T10:28:38;5.93;;;3.30;;
66139;SDS011;52945;51.908;8.364;2023-10-13T10:31:41;9.98;;;3.15;;
66139;SDS011;52945;51.908;8.364;2023-10-13T10:34:45;6.63;;;3.22;;
66139;SDS011;52945;51.908;8.364;2023-10-13T10:37:46;12.70;;;4.13;;
66139;SDS011;52945;51.908;8.364;2023-10-13T10:40:54;6.25;;;2.83;;
66139;SDS011;52945;51.908;8.364;2023-10-13T10:44:02;10.10;;;3.10;;
66139;SDS011;52945;51.908;8.364;2023-10-13T10:47:09;11.07;;;3.42;;
66139;SDS011;52945;51.908;8.364;2023-10-13T10:50:36;12.25;;;3.15;;
66139;SDS011;52945;51.908;8.364;2023-10-13T10:53:37;9.65;;;2.90;;
66139;SDS011;52945;51.908;8.364;2023-10-13T10:56:43;8.32;;;3.03;;
66139;SDS011;52945;51.908;8.364;2023-10-13T10:59:44;9.55;;;3.10;;
66139;SDS011;52945;51.908;8.364;2023-10-13T11:02:55;9.63;;;2.88;;
66139;SDS011;52945;51.908;8.364;2023-10-13T11:05:56;6.80;;;2.95;;
66139;SDS011;52945;51.908;8.364;2023-10-13T11:09:05;8.93;;;2.63;;
66139;SDS011;52945;51.908;8.364;2023-10-13T11:15:26;11.98;;;3.17;;
66139;SDS011;52945;51.908;8.364;2023-10-13T11:18:33;6.20;;;2.83;;
66139;SDS011;52945;51.908;8.364;2023-10-13T11:21:38;7.95;;;2.58;;
66139;SDS011;52945;51.908;8.364;2023-10-13T11:24:41;11.98;;;2.95;;
66139;SDS011;52945;51.908;8.364;2023-10-13T11:27:45;7.68;;;2.92;;
66139;SDS011;52945;51.908;8.364;2023-10-13T11:30:51;7.38;;;2.90;;
66139;SDS011;52945;51.908;8.364;2023-10-13T11:33:52;6.82;;;2.92;;
66139;SDS011;52945;51.908;8.364;2023-10-13T11:36:56;6.43;;;2.67;;
66139;SDS011;52945;51.908;8.364;2023-10-13T11:39:58;12.30;;;3.20;;
66139;SDS011;52945;51.908;8.364;2023-10-13T11:43:01;10.07;;;3.67;;
66139;SDS011;52945;51.908;8.364;2023-10-13T11:46:02;9.32;;;3.05;;
66139;SDS011;52945;51.908;8.364;2023-10-13T11:49:09;9.63;;;2.92;;
66139;SDS011;52945;51.908;8.364;2023-10-13T11:52:14;8.23;;;3.22;;
66139;SDS011;52945;51.908;8.364;2023-10-13T11:55:17;7.65;;;3.00;;
66139;SDS011;52945;51.908;8.364;2023-10-13T11:58:18;9.05;;;2.88;;
66139;SDS011;52945;51.908;8.364;2023-10-13T12:01:19;9.43;;;3.13;;
66139;SDS011;52945;51.908;8.364;2023-10-13T12:04:20;9.10;;;2.97;;
66139;SDS011;52945;51.908;8.364;2023-10-13T12:07:33;10.07;;;3.45;;
66139;SDS011;52945;51.908;8.364;2023-10-13T12:10:48;8.25;;;2.95;;
66139;SDS011;52945;51.908;8.364;2023-10-13T12:14:00;9.60;;;3.17;;
66139;SDS011;52945;51.908;8.364;2023-10-13T12:17:11;8.38;;;3.10;;
66139;SDS011;52945;51.908;8.364;2023-10-13T12:20:13;9.10;;;3.13;;
66139;SDS011;52945;51.908;8.364;2023-10-13T12:23:32;9.73;;;3.30;;
66139;SDS011;52945;51.908;8.364;2023-10-13T12:26:33;8.13;;;2.92;;
66139;SDS011;52945;51.908;8.364;2023-10-13T12:29:33;8.75;;;3.05;;
66139;SDS011;52945;51.908;8.364;2023-10-13T12:32:35;8.48;;;2.83;;
66139;SDS011;52945;51.908;8.364;2023-10-13T12:35:36;8.50;;;3.25;;
66139;SDS011;52945;51.908;8.364;2023-10-13T12:39:03;7.30;;;3.08;;
66139;SDS011;52945;51.908;8.364;2023-10-13T12:42:06;6.53;;;2.92;;
66139;SDS011;52945;51.908;8.364;2023-10-13T12:45:38;10.20;;;3.10;;
66139;SDS011;52945;51.908;8.364;2023-10-13T12:49:00;9.00;;;3.00;;
66139;SDS011;52945;51.908;8.364;2023-10-13T12:52:19;9.15;;;3.03;;
66139;SDS011;52945;51.908;8.364;2023-10-13T12:55:20;11.85;;;3.40;;
66139;SDS011;52945;51.908;8.364;2023-10-13T12:58:24;10.10;;;2.97;;
66139;SDS011;52945;51.908;8.364;2023-10-13T13:01:27;13.07;;;3.25;;
66139;SDS011;52945;51.908;8.364;2023-10-13T13:04:32;9.77;;;3.47;;
66139;SDS011;52945;51.908;8.364;2023-10-13T13:07:37;8.55;;;2.70;;
66139;SDS011;52945;51.908;8.364;2023-10-13T13:10:47;10.93;;;3.42;;
66139;SDS011;52945;51.908;8.364;2023-10-13T13:13:49;9.15;;;3.08;;
66139;SDS011;52945;51.908;8.364;2023-10-13T13:16:49;9.50;;;3.20;;
66139;SDS011;52945;51.908;8.364;2023-10-13T13:19:50;7.70;;;2.80;;
66139;SDS011;52945;51.908;8.364;2023-10-13T13:22:51;11.82;;;3.22;;
66139;SDS011;52945;51.908;8.364;2023-10-13T13:25:53;12.32;;;3.47;;
66139;SDS011;52945;51.908;8.364;2023-10-13T13:28:56;11.25;;;3.20;;
66139;SDS011;52945;51.908;8.364;2023-10-13T13:31:57;7.22;;;2.95;;
66139;SDS011;52945;51.908;8.364;2023-10-13T13:34:58;9.32;;;3.33;;
66139;SDS011;52945;51.908;8.364;2023-10-13T13:38:04;12.30;;;3.15;;
66139;SDS011;52945;51.908;8.364;2023-10-13T13:41:13;9.35;;;3.28;;
66139;SDS011;52945;51.908;8.364;2023-10-13T13:44:17;10.07;;;3.20;;
66139;SDS011;52945;51.908;8.364;2023-10-13T13:47:17;6.78;;;2.90;;
66139;SDS011;52945;51.908;8.364;2023-10-13T13:50:21;10.13;;;3.20;;
66139;SDS011;52945;51.908;8.364;2023-10-13T13:53:30;12.13;;;3.20;;
66139;SDS011;52945;51.908;8.364;2023-10-13T13:56:34;9.60;;;3.33;;
66139;SDS011;52945;51.908;8.364;2023-10-13T13:59:39;7.65;;;2.92;;
66139;SDS011;52945;51.908;8.364;2023-10-13T14:02:40;12.93;;;3.38;;
66139;SDS011;52945;51.908;8.364;2023-10-13T14:08:50;6.75;;;3.22;;
66139;SDS011;52945;51.908;8.364;2023-10-13T14:11:55;11.02;;;3.33;;
66139;SDS011;52945;51.908;8.364;2023-10-13T14:15:15;9.30;;;2.97;;
66139;SDS011;52945;51.908;8.364;2023-10-13T14:18:23;12.13;;;3.53;;
66139;SDS011;52945;51.908;8.364;2023-10-13T14:21:30;11.48;;;3.70;;
66139;SDS011;52945;51.908;8.364;2023-10-13T14:24:34;9.15;;;3.03;;
66139;SDS011;52945;51.908;8.364;2023-10-13T14:27:35;11.23;;;3.35;;
66139;SDS011;52945;51.908;8.364;2023-10-13T14:30:36;10.57;;;3.40;;
66139;SDS011;52945;51.908;8.364;2023-10-13T14:33:36;9.57;;;3.30;;
66139;SDS011;52945;51.908;8.364;2023-10-13T14:36:37;9.70;;;3.22;;
66139;SDS011;52945;51.908;8.364;2023-10-13T14:39:37;9.75;;;3.40;;
66139;SDS011;52945;51.908;8.364;2023-10-13T14:42:41;13.15;;;3.53;;
66139;SDS011;52945;51.908;8.364;2023-10-13T14:45:41;16.85;;;3.40;;
66139;SDS011;52945;51.908;8.364;2023-10-13T14:48:42;7.60;;;3.10;;
66139;SDS011;52945;51.908;8.364;2023-10-13T14:51:43;12.48;;;3.40;;
66139;SDS011;52945;51.908;8.364;2023-10-13T14:54:44;11.75;;;3.97;;
66139;SDS011;52945;51.908;8.364;2023-10-13T14:57:48;7.80;;;3.03;;
66139;SDS011;52945;51.908;8.364;2023-10-13T15:00:49;9.45;;;3.05;;
66139;SDS011;52945;51.908;8.364;2023-10-13T15:03:52;10.18;;;3.35;;
66139;SDS011;52945;51.908;8.364;2023-10-13T15:06:56;10.35;;;3.20;;
66139;SDS011;52945;51.908;8.364;2023-10-13T15:09:57;11.00;;;3.30;;
66139;SDS011;52945;51.908;8.364;2023-10-13T15:12:58;9.18;;;3.22;;
66139;SDS011;52945;51.908;8.364;2023-10-13T15:15:59;9.73;;;2.80;;
66139;SDS011;52945;51.908;8.364;2023-10-13T15:19:05;7.65;;;3.10;;
66139;SDS011;52945;51.908;8.364;2023-10-13T15:22:06;8.35;;;2.92;;
66139;SDS011;52945;51.908;8.364;2023-10-13T15:25:08;9.02;;;3.70;;
66139;SDS011;52945;51.908;8.364;2023-10-13T15:28:16;11.15;;;3.28;;
66139;SDS011;52945;51.908;8.364;2023-10-13T15:31:21;10.30;;;3.00;;
66139;SDS011;52945;51.908;8.364;2023-10-13T15:34:41;10.88;;;2.97;;
66139;SDS011;52945;51.908;8.364;2023-10-13T15:37:41;10.65;;;3.72;;
66139;SDS011;52945;51.908;8.364;2023-10-13T15:40:47;9.95;;;3.05;;
66139;SDS011;52945;51.908;8.364;2023-10-13T15:43:54;12.50;;;4.22;;
66139;SDS011;52945;51.908;8.364;2023-10-13T15:46:56;14.43;;;3.47;;
66139;SDS011;52945;51.908;8.364;2023-10-13T15:49:58;10.95;;;3.40;;
66139;SDS011;52945;51.908;8.364;2023-10-13T15:53:03;8.45;;;2.58;;
66139;SDS011;52945;51.908;8.364;2023-10-13T15:56:04;9.57;;;3.00;;
66139;SDS011;52945;51.908;8.364;2023-10-13T15:59:14;12.52;;;3.40;;
66139;SDS011;52945;51.908;8.364;2023-10-13T16:02:15;10.15;;;3.35;;
66139;SDS011;52945;51.908;8.364;2023-10-13T16:05:20;8.55;;;3.20;;
66139;SDS011;52945;51.908;8.364;2023-10-13T16:08:25;12.25;;;3.35;;
66139;SDS011;52945;51.908;8.364;2023-10-13T16:11:25;11.02;;;3.05;;
66139;SDS011;52945;51.908;8.364;2023-10-13T16:14:26;11.73;;;3.13;;
66139;SDS011;52945;51.908;8.364;2023-10-13T16:17:27;9.65;;;3.10;;
66139;SDS011;52945;51.908;8.364;2023-10-13T16:20:29;10.73;;;2.88;;
66139;SDS011;52945;51.908;8.364;2023-10-13T16:23:30;9.52;;;3.40;;
66139;SDS011;52945;51.908;8.364;2023-10-13T16:26:31;9.27;;;2.85;;
66139;SDS011;52945;51.908;8.364;2023-10-13T16:29:32;8.70;;;2.95;;
66139;SDS011;52945;51.908;8.364;2023-10-13T16:32:32;9.65;;;3.63;;
66139;SDS011;52945;51.908;8.364;2023-10-13T16:35:36;8.55;;;3.05;;
66139;SDS011;52945;51.908;8.364;2023-10-13T16:38:36;7.32;;;2.90;;
66139;SDS011;52945;51.908;8.364;2023-10-13T16:41:37;6.80;;;2.90;;
66139;SDS011;52945;51.908;8.364;2023-10-13T16:44:38;9.57;;;3.20;;
66139;SDS011;52945;51.908;8.364;2023-10-13T16:47:39;9.10;;;3.00;;
66139;SDS011;52945;51.908;8.364;2023-10-13T16:50:43;10.38;;;3.08;;
66139;SDS011;52945;51.908;8.364;2023-10-13T16:53:44;9.77;;;2.80;;
66139;SDS011;52945;51.908;8.364;2023-10-13T16:56:49;7.10;;;2.35;;
66139;SDS011;52945;51.908;8.364;2023-10-13T16:59:51;5.90;;;2.80;;
66139;SDS011;52945;51.908;8.364;2023-10-13T17:02:54;10.93;;;3.38;;
66139;SDS011;52945;51.908;8.364;2023-10-13T17:05:56;7.28;;;2.85;;
66139;SDS011;52945;51.908;8.364;2023-10-13T17:09:01;6.70;;;3.00;;
66139;SDS011;52945;51.908;8.364;2023-10-13T17:12:04;7.68;;;2.55;;
66139;SDS011;52945;51.908;8.364;2023-10-13T17:15:05;10.95;;;3.10;;
66139;SDS011;52945;51.908;8.364;2023-10-13T17:18:15;6.53;;;3.00;;
66139;SDS011;52945;51.908;8.364;2023-10-13T17:24:21;7.38;;;3.15;;
66139;SDS011;52945;51.908;8.364;2023-10-13T17:27:22;8.65;;;2.67;;
66139;SDS011;52945;51.908;8.364;2023-10-13T17:30:22;9.75;;;3.20;;
66139;SDS011;52945;51.908;8.364;2023-10-13T17:33:23;10.75;;;3.33;;
66139;SDS011;52945;51.908;8.364;2023-10-13T17:36:24;8.70;;;3.15;;
66139;SDS011;52945;51.908;8.364;2023-10-13T17:39:28;6.38;;;2.80;;
66139;SDS011;52945;51.908;8.364;2023-10-13T17:42:29;9.23;;;2.85;;
66139;SDS011;52945;51.908;8.364;2023-10-13T17:45:35;7.30;;;2.83;;
66139;SDS011;52945;51.908;8.364;2023-10-13T17:48:35;13.10;;;3.25;;
66139;SDS011;52945;51.908;8.364;2023-10-13T17:51:37;6.50;;;2.90;;
66139;SDS011;52945;51.908;8.364;2023-10-13T17:54:37;18.38;;;5.80;;
66139;SDS011;52945;51.908;8.364;2023-10-13T17:57:38;16.75;;;7.65;;
66139;SDS011;52945;51.908;8.364;2023-10-13T18:00:38;10.52;;;4.22;;
66139;SDS011;52945;51.908;8.364;2023-10-13T18:03:39;11.32;;;5.30;;
66139;SDS011;52945;51.908;8.364;2023-10-13T18:06:40;11.13;;;5.03;;
66139;SDS011;52945;51.908;8.364;2023-10-13T18:09:40;11.18;;;6.38;;
66139;SDS011;52945;51.908;8.364;2023-10-13T18:12:41;13.43;;;4.35;;
66139;SDS011;52945;51.908;8.364;2023-10-13T18:15:42;17.90;;;7.93;;
66139;SDS011;52945;51.908;8.364;2023-10-13T18:18:43;11.05;;;3.70;;
66139;SDS011;52945;51.908;8.364;2023-10-13T18:21:44;13.40;;;3.85;;
66139;SDS011;52945;51.908;8.364;2023-10-13T18:24:46;9.32;;;3.28;;
66139;SDS011;52945;51.908;8.364;2023-10-13T18:27:47;8.13;;;2.85;;
66139;SDS011;52945;51.908;8.364;2023-10-13T18:30:55;6.35;;;2.83;;
66139;SDS011;52945;51.908;8.364;2023-10-13T18:34:05;11.25;;;3.30;;
66139;SDS011;52945;51.908;8.364;2023-10-13T18:37:06;7.28;;;3.10;;
66139;SDS011;52945;51.908;8.364;2023-10-13T18:40:13;9.23;;;4.70;;
66139;SDS011;52945;51.908;8.364;2023-10-13T18:43:18;9.20;;;3.08;;
66139;SDS011;52945;51.908;8.364;2023-10-13T18:46:19;9.35;;;4.95;;
66139;SDS011;52945;51.908;8.364;2023-10-13T18:49:29;21.10;;;7.65;;
66139;SDS011;52945;51.908;8.364;2023-10-13T18:52:31;21.25;;;9.45;;
66139;SDS011;52945;51.908;8.364;2023-10-13T18:55:32;30.13;;;12.52;;
66139;SDS011;52945;51.908;8.364;2023-10-13T18:58:33;11.38;;;5.72;;
66139;SDS011;52945;51.908;8.364;2023-10-13T19:01:34;34.13;;;15.43;;
66139;SDS011;52945;51.908;8.364;2023-10-13T19:04:35;16.38;;;7.20;;
66139;SDS011;52945;51.908;8.364;2023-10-13T19:07:36;17.65;;;7.70;;
66139;SDS011;52945;51.908;8.364;2023-10-13T19:10:37;12.52;;;5.78;;
66139;SDS011;52945;51.908;8.364;2023-10-13T19:13:39;10.80;;;4.57;;
66139;SDS011;52945;51.908;8.364;2023-10-13T19:16:43;19.52;;;8.65;;
66139;SDS011;52945;51.908;8.364;2023-10-13T19:19:46;18.58;;;8.55;;
66139;SDS011;52945;51.908;8.364;2023-10-13T19:22:46;23.75;;;10.18;;
66139;SDS011;52945;51.908;8.364;2023-10-13T19:25:53;32.80;;;19.35;;
66139;SDS011;52945;51.908;8.364;2023-10-13T19:28:58;11.13;;;5.45;;
66139;SDS011;52945;51.908;8.364;2023-10-13T19:32:00;8.88;;;3.28;;
66139;SDS011;52945;51.908;8.364;2023-10-13T19:35:02;9.13;;;3.45;;
66139;SDS011;52945;51.908;8.364;2023-10-13T19:38:06;9.38;;;4.07;;
66139;SDS011;52945;51.908;8.364;2023-10-13T19:41:16;6.43;;;3.22;;
66139;SDS011;52945;51.908;8.364;2023-10-13T19:44:18;7.50;;;2.97;;
66139;SDS011;52945;51.908;8.364;2023-10-13T19:47:19;12.60;;;3.45;;
66139;SDS011;52945;51.908;8.364;2023-10-13T19:50:19;12.65;;;3.30;;
66139;SDS011;52945;51.908;8.364;2023-10-13T19:53:22;8.63;;;3.10;;
66139;SDS011;52945;51.908;8.364;2023-10-13T19:56:22;10.90;;;3.83;;
66139;SDS011;52945;51.908;8.364;2023-10-13T19:59:23;10.65;;;2.90;;
66139;SDS011;52945;51.908;8.364;2023-10-13T20:02:24;9.25;;;2.78;;
66139;SDS011;52945;51.908;8.364;2023-10-13T20:05:25;11.65;;;3.30;;
66139;SDS011;52945;51.908;8.364;2023-10-13T20:08:25;9.15;;;3.10;;